createdAt,value
2022-10-24T00:02:27.275Z,13.60
2022-10-24T00:04:55.185Z,13.50
2022-10-24T00:07:23.033Z,13.60
2022-10-24T00:09:50.829Z,13.60
2022-10-24T00:12:20.128Z,13.60
2022-10-24T00:14:48.045Z,13.60
2022-10-24T00:17:15.825Z,13.60
2022-10-24T00:19:43.752Z,13.60
2022-10-24T00:22:11.600Z,13.60
2022-10-24T00:24:39.404Z,13.50
2022-10-24T00:27:07.188Z,13.50
2022-10-24T00:29:38.686Z,13.50
2022-10-24T00:32:06.657Z,13.50
2022-10-24T00:34:36.498Z,13.40
2022-10-24T00:37:04.924Z,13.40
2022-10-24T00:39:32.687Z,13.40
2022-10-24T00:42:00.476Z,13.30
2022-10-24T00:44:29.295Z,13.30
2022-10-24T00:47:00.745Z,13.20
2022-10-24T00:49:30.830Z,13.20
2022-10-24T00:52:01.231Z,13.20
2022-10-24T00:54:29.084Z,13.20
2022-10-24T00:57:01.067Z,13.20
2022-10-24T00:59:28.907Z,13.20
2022-10-24T01:01:58.185Z,13.10
2022-10-24T01:04:25.971Z,13.20
2022-10-24T01:07:02.530Z,13.10
2022-10-24T01:09:37.432Z,13.10
2022-10-24T01:12:10.210Z,13.10
2022-10-24T01:14:45.957Z,13.10
2022-10-24T01:17:21.830Z,13.00
2022-10-24T01:20:08.680Z,13.00
2022-10-24T01:22:43.391Z,13.10
2022-10-24T01:25:14.873Z,13.10
2022-10-24T01:27:54.880Z,13.10
2022-10-24T01:30:24.422Z,13.20
2022-10-24T01:32:56.759Z,13.20
2022-10-24T01:35:35.780Z,13.20
2022-10-24T01:38:05.937Z,13.10
2022-10-24T01:40:35.876Z,13.10
2022-10-24T01:43:09.106Z,13.00
2022-10-24T01:45:40.216Z,13.10
2022-10-24T01:48:09.077Z,13.00
2022-10-24T01:50:38.691Z,12.90
2022-10-24T01:53:07.888Z,13.00
2022-10-24T01:55:35.740Z,12.90
2022-10-24T01:58:03.643Z,12.80
2022-10-24T02:00:32.036Z,12.80
2022-10-24T02:03:02.591Z,12.70
2022-10-24T02:05:31.626Z,12.70
2022-10-24T02:08:02.092Z,12.70
2022-10-24T02:10:31.872Z,12.60
2022-10-24T02:13:02.745Z,12.60
2022-10-24T02:15:32.388Z,12.40
2022-10-24T02:18:01.940Z,12.40
2022-10-24T02:20:31.775Z,12.50
2022-10-24T02:23:01.885Z,12.60
2022-10-24T02:25:34.041Z,12.50
2022-10-24T02:28:05.835Z,12.50
2022-10-24T02:30:35.159Z,12.50
2022-10-24T02:33:04.490Z,12.50
2022-10-24T02:35:33.737Z,12.50
2022-10-24T02:38:03.937Z,12.50
2022-10-24T02:40:32.616Z,12.40
2022-10-24T02:43:01.659Z,12.50
2022-10-24T02:45:30.510Z,12.40
2022-10-24T02:48:02.414Z,12.30
2022-10-24T02:50:32.912Z,12.30
2022-10-24T02:53:00.691Z,12.20
2022-10-24T02:55:28.496Z,12.20
2022-10-24T02:57:56.339Z,12.30
2022-10-24T03:00:24.167Z,12.30
2022-10-24T03:02:52.294Z,12.20
2022-10-24T03:05:20.249Z,12.30
2022-10-24T03:07:49.425Z,12.30
2022-10-24T03:10:17.282Z,12.30
2022-10-24T03:12:45.329Z,12.20
2022-10-24T03:15:13.663Z,12.30
2022-10-24T03:17:41.801Z,12.30
2022-10-24T03:20:10.355Z,12.20
2022-10-24T03:22:38.142Z,12.20
2022-10-24T03:25:07.689Z,12.20
2022-10-24T03:27:36.030Z,12.20
2022-10-24T03:30:04.143Z,12.30
2022-10-24T03:32:34.243Z,12.20
2022-10-24T03:35:02.796Z,12.20
2022-10-24T03:37:30.755Z,12.20
2022-10-24T03:39:58.523Z,12.10
2022-10-24T03:42:27.720Z,12.10
2022-10-24T03:44:55.510Z,12.00
2022-10-24T03:47:23.351Z,12.00
2022-10-24T03:49:51.170Z,12.00
2022-10-24T03:52:18.997Z,12.00
2022-10-24T03:54:46.785Z,12.10
2022-10-24T03:57:14.605Z,12.00
2022-10-24T03:59:43.845Z,12.10
2022-10-24T04:02:13.277Z,12.10
2022-10-24T04:04:42.006Z,12.10
2022-10-24T04:07:09.876Z,12.10
2022-10-24T04:09:37.719Z,12.10
2022-10-24T04:12:07.904Z,12.10
2022-10-24T04:14:35.678Z,12.10
2022-10-24T04:17:04.819Z,12.00
2022-10-24T04:19:32.621Z,12.00
2022-10-24T04:22:00.411Z,12.00
2022-10-24T04:24:30.300Z,11.90
2022-10-24T04:26:58.220Z,12.00
2022-10-24T04:29:26.000Z,11.90
2022-10-24T04:31:53.781Z,12.00
2022-10-24T04:34:22.997Z,11.90
2022-10-24T04:36:50.829Z,11.90
2022-10-24T04:39:19.677Z,11.80
2022-10-24T04:41:47.598Z,11.90
2022-10-24T04:44:15.384Z,11.80
2022-10-24T04:46:43.160Z,11.80
2022-10-24T04:49:11.043Z,11.90
2022-10-24T04:51:40.219Z,11.90
2022-10-24T04:54:08.598Z,12.00
2022-10-24T04:56:36.413Z,12.00
2022-10-24T04:59:04.529Z,12.00
2022-10-24T05:01:32.501Z,12.00
2022-10-24T05:06:33.124Z,12.00
2022-10-24T05:09:02.218Z,12.00
2022-10-24T05:11:30.011Z,12.00
2022-10-24T05:13:57.809Z,11.90
2022-10-24T05:16:25.737Z,12.10
2022-10-24T05:18:53.624Z,12.10
2022-10-24T05:21:21.362Z,12.10
2022-10-24T05:23:49.146Z,12.00
2022-10-24T05:26:18.531Z,12.00
2022-10-24T05:28:51.464Z,12.00
2022-10-24T05:31:22.902Z,12.10
2022-10-24T05:33:50.689Z,12.10
2022-10-24T05:36:18.485Z,12.10
2022-10-24T05:38:46.373Z,12.10
2022-10-24T05:41:14.257Z,12.10
2022-10-24T05:43:45.833Z,12.10
2022-10-24T05:46:13.730Z,12.10
2022-10-24T05:48:41.526Z,12.00
2022-10-24T05:51:09.383Z,11.90
2022-10-24T05:53:37.233Z,11.90
2022-10-24T05:56:07.666Z,11.90
2022-10-24T05:58:35.707Z,11.70
2022-10-24T06:01:05.135Z,11.90
2022-10-24T06:03:33.129Z,11.90
2022-10-24T06:06:04.414Z,12.00
2022-10-24T06:08:32.218Z,12.00
2022-10-24T06:11:00.042Z,12.10
2022-10-24T06:13:29.570Z,12.00
2022-10-24T06:16:00.327Z,11.90
2022-10-24T06:18:29.520Z,12.00
2022-10-24T06:21:00.163Z,12.00
2022-10-24T06:23:28.222Z,12.00
2022-10-24T06:25:56.023Z,12.00
2022-10-24T06:28:24.056Z,12.10
2022-10-24T06:30:54.139Z,12.10
2022-10-24T06:33:21.947Z,12.30
2022-10-24T06:35:51.162Z,12.30
2022-10-24T06:38:19.025Z,12.40
2022-10-24T06:40:47.079Z,12.40
2022-10-24T06:43:16.340Z,12.40
2022-10-24T06:45:46.446Z,12.50
2022-10-24T06:48:14.274Z,12.50
2022-10-24T06:50:44.405Z,12.70
2022-10-24T06:53:13.626Z,12.70
2022-10-24T06:55:41.373Z,12.80
2022-10-24T06:58:09.174Z,12.90
2022-10-24T07:00:38.509Z,12.90
2022-10-24T07:03:06.309Z,12.90
2022-10-24T07:05:34.188Z,12.90
2022-10-24T07:08:02.044Z,13.00
2022-10-24T07:10:31.180Z,13.20
2022-10-24T07:12:58.965Z,13.30
2022-10-24T07:15:26.852Z,13.40
2022-10-24T07:17:54.741Z,13.40
2022-10-24T07:20:22.617Z,13.50
2022-10-24T07:22:50.415Z,13.50
2022-10-24T07:25:18.188Z,13.50
2022-10-24T07:27:47.349Z,13.60
2022-10-24T07:30:17.093Z,13.90
2022-10-24T07:32:45.273Z,14.10
2022-10-24T07:35:15.633Z,14.00
2022-10-24T07:37:43.744Z,14.10
2022-10-24T07:40:12.498Z,14.40
2022-10-24T07:42:40.423Z,14.40
2022-10-24T07:45:10.742Z,14.40
2022-10-24T07:48:05.768Z,14.50
2022-10-24T07:50:34.171Z,14.70
2022-10-24T07:53:04.119Z,14.70
2022-10-24T07:55:31.960Z,14.70
2022-10-24T07:57:59.762Z,14.70
2022-10-24T08:00:28.899Z,14.90
2022-10-24T08:02:56.809Z,15.10
2022-10-24T08:05:24.607Z,15.20
2022-10-24T08:08:00.274Z,15.30
2022-10-24T08:10:41.787Z,15.50
2022-10-24T08:13:13.611Z,15.50
2022-10-24T08:15:42.921Z,15.40
2022-10-24T08:18:10.750Z,15.50
2022-10-24T08:20:38.582Z,15.70
2022-10-24T08:23:06.450Z,15.60
2022-10-24T08:25:34.317Z,15.60
2022-10-24T08:28:04.051Z,15.50
2022-10-24T08:30:36.863Z,15.60
2022-10-24T08:33:06.161Z,15.70
2022-10-24T08:35:34.015Z,15.70
2022-10-24T08:38:02.640Z,15.80
2022-10-24T08:40:30.478Z,15.80
2022-10-24T08:42:59.038Z,15.80
2022-10-24T08:45:31.896Z,15.90
2022-10-24T08:48:03.323Z,16.10
2022-10-24T08:50:33.554Z,16.10
2022-10-24T08:53:03.275Z,16.20
2022-10-24T08:55:50.224Z,16.30
2022-10-24T08:58:19.648Z,16.40
2022-10-24T09:00:51.317Z,16.30
2022-10-24T09:03:31.546Z,16.40
2022-10-24T09:06:13.306Z,16.40
2022-10-24T09:08:44.397Z,16.50
2022-10-24T09:11:15.871Z,16.60
2022-10-24T09:13:46.207Z,16.60
2022-10-24T09:16:15.508Z,16.60
2022-10-24T09:18:44.581Z,16.70
2022-10-24T09:21:15.980Z,16.80
2022-10-24T09:23:45.027Z,16.80
2022-10-24T09:26:15.204Z,16.80
2022-10-24T09:28:43.358Z,16.90
2022-10-24T09:31:16.084Z,16.90
2022-10-24T09:33:45.301Z,16.90
2022-10-24T09:36:15.498Z,16.90
2022-10-24T09:38:43.979Z,16.90
2022-10-24T09:41:17.726Z,16.90
2022-10-24T09:43:48.005Z,17.00
2022-10-24T09:46:17.318Z,17.10
2022-10-24T09:48:55.802Z,17.10
2022-10-24T09:51:32.474Z,17.20
2022-10-24T09:54:05.398Z,17.20
2022-10-24T09:56:38.085Z,17.30
2022-10-24T09:59:32.062Z,17.30
2022-10-24T10:02:14.208Z,17.30
2022-10-24T10:04:42.550Z,17.30
2022-10-24T10:07:15.035Z,17.30
2022-10-24T10:09:52.726Z,17.50
2022-10-24T10:12:27.789Z,17.50
2022-10-24T10:14:56.181Z,17.60
2022-10-24T10:17:24.697Z,17.70
2022-10-24T10:19:53.145Z,17.60
2022-10-24T10:22:27.804Z,17.70
2022-10-24T10:24:56.338Z,17.70
2022-10-24T10:27:30.326Z,17.70
2022-10-24T10:30:09.084Z,17.70
2022-10-24T10:32:39.536Z,17.70
2022-10-24T10:35:12.365Z,17.80
2022-10-24T10:37:44.760Z,17.90
2022-10-24T10:40:26.236Z,17.80
2022-10-24T10:42:58.713Z,17.80
2022-10-24T10:45:32.839Z,17.90
2022-10-24T10:48:05.168Z,17.90
2022-10-24T10:50:37.467Z,17.80
2022-10-24T10:53:12.465Z,17.70
2022-10-24T10:55:43.478Z,17.70
2022-10-24T10:58:20.510Z,17.70
2022-10-24T11:00:52.044Z,17.80
2022-10-24T11:03:27.360Z,17.80
2022-10-24T11:06:02.644Z,17.80
2022-10-24T11:08:48.377Z,17.80
2022-10-24T11:11:18.495Z,17.90
2022-10-24T11:13:49.130Z,17.90
2022-10-24T11:16:19.772Z,17.90
2022-10-24T11:18:49.481Z,18.00
2022-10-24T11:21:17.846Z,18.00
2022-10-24T11:23:50.428Z,18.00
2022-10-24T11:26:20.308Z,18.00
2022-10-24T11:28:53.272Z,18.10
2022-10-24T11:31:23.538Z,18.10
2022-10-24T11:33:56.485Z,18.00
2022-10-24T11:36:28.613Z,18.10
2022-10-24T11:39:03.885Z,18.10
2022-10-24T11:41:35.218Z,18.00
2022-10-24T11:44:06.694Z,18.00
2022-10-24T11:46:38.338Z,18.00
2022-10-24T11:49:11.078Z,18.00
2022-10-24T11:51:41.478Z,18.00
2022-10-24T11:54:13.605Z,18.10
2022-10-24T11:56:44.428Z,18.10
2022-10-24T11:59:14.197Z,18.10
2022-10-24T12:01:57.002Z,18.10
2022-10-24T12:04:35.925Z,18.10
2022-10-24T12:07:15.162Z,18.20
2022-10-24T12:09:51.427Z,18.20
2022-10-24T12:12:26.610Z,18.30
2022-10-24T12:15:00.860Z,18.30
2022-10-24T12:17:42.279Z,18.30
2022-10-24T12:20:14.037Z,18.30
2022-10-24T12:22:43.395Z,18.30
2022-10-24T12:25:20.961Z,18.40
2022-10-24T12:27:54.165Z,18.40
2022-10-24T12:30:24.171Z,18.30
2022-10-24T12:32:54.650Z,18.40
2022-10-24T12:35:34.305Z,18.40
2022-10-24T12:38:02.599Z,18.30
2022-10-24T12:40:52.174Z,18.30
2022-10-24T12:43:31.557Z,18.30
2022-10-24T12:46:01.589Z,18.40
2022-10-24T12:48:31.346Z,18.30
2022-10-24T12:51:14.047Z,18.30
2022-10-24T12:54:03.269Z,18.40
2022-10-24T12:56:33.883Z,18.40
2022-10-24T12:59:03.119Z,18.40
2022-10-24T13:01:35.279Z,18.40
2022-10-24T13:04:21.936Z,18.40
2022-10-24T13:06:54.740Z,18.50
2022-10-24T13:09:30.717Z,18.70
2022-10-24T13:12:05.618Z,18.80
2022-10-24T13:14:50.131Z,18.70
2022-10-24T13:17:23.321Z,18.80
2022-10-24T13:20:02.635Z,18.70
2022-10-24T13:22:33.624Z,18.70
2022-10-24T13:25:01.633Z,18.70
2022-10-24T13:27:32.663Z,18.60
2022-10-24T13:30:15.417Z,18.60
2022-10-24T13:32:43.766Z,18.80
2022-10-24T13:35:16.089Z,18.80
2022-10-24T13:37:46.739Z,18.70
2022-10-24T13:40:16.702Z,18.70
2022-10-24T13:42:52.976Z,18.70
2022-10-24T13:45:24.026Z,18.70
2022-10-24T13:47:54.139Z,18.70
2022-10-24T13:50:23.219Z,18.60
2022-10-24T13:52:55.142Z,18.70
2022-10-24T13:55:25.544Z,18.70
2022-10-24T13:57:56.868Z,18.70
2022-10-24T14:00:28.067Z,18.70
2022-10-24T14:02:58.013Z,18.70
2022-10-24T14:05:33.099Z,18.60
2022-10-24T14:08:02.297Z,18.50
2022-10-24T14:10:30.626Z,18.50
2022-10-24T14:13:00.840Z,18.40
2022-10-24T14:15:31.025Z,18.40
2022-10-24T14:18:00.166Z,18.30
2022-10-24T14:20:30.504Z,18.30
2022-10-24T14:22:59.245Z,18.30
2022-10-24T14:25:28.895Z,18.20
2022-10-24T14:27:58.596Z,18.20
2022-10-24T14:30:34.320Z,18.20
2022-10-24T14:33:18.689Z,18.20
2022-10-24T14:35:46.866Z,18.30
2022-10-24T14:38:15.651Z,18.20
2022-10-24T14:40:46.440Z,18.30
2022-10-24T14:43:16.559Z,18.30
2022-10-24T14:46:02.185Z,18.30
2022-10-24T14:48:30.459Z,18.10
2022-10-24T14:51:02.897Z,18.20
2022-10-24T14:53:31.053Z,18.10
2022-10-24T14:55:59.958Z,18.10
2022-10-24T14:58:29.606Z,18.10
2022-10-24T15:00:59.657Z,18.10
2022-10-24T15:03:28.442Z,18.00
2022-10-24T15:05:57.910Z,18.00
2022-10-24T15:08:45.964Z,17.90
2022-10-24T15:11:21.732Z,17.90
2022-10-24T15:14:05.683Z,17.80
2022-10-24T15:16:37.683Z,17.80
2022-10-24T15:19:06.985Z,17.70
2022-10-24T15:21:37.081Z,17.70
2022-10-24T15:24:05.429Z,17.60
2022-10-24T15:26:34.479Z,17.50
2022-10-24T15:29:09.127Z,17.50
2022-10-24T15:31:39.610Z,17.40
2022-10-24T15:34:09.016Z,17.40
2022-10-24T15:36:37.567Z,17.40
2022-10-24T15:39:08.812Z,17.30
2022-10-24T15:41:37.009Z,17.20
2022-10-24T15:44:11.851Z,17.20
2022-10-24T15:46:41.269Z,17.20
2022-10-24T15:49:09.272Z,17.10
2022-10-24T15:51:38.126Z,17.10
2022-10-24T15:54:06.031Z,17.00
2022-10-24T15:56:33.946Z,17.00
2022-10-24T15:59:01.700Z,17.00
2022-10-24T16:01:32.054Z,16.90
2022-10-24T16:04:02.523Z,16.90
2022-10-24T16:06:30.367Z,16.80
2022-10-24T16:08:58.190Z,16.80
2022-10-24T16:11:26.027Z,16.80
2022-10-24T16:13:53.930Z,16.80
2022-10-24T16:16:21.759Z,16.80
2022-10-24T16:18:49.816Z,16.70
2022-10-24T16:21:22.388Z,16.70
2022-10-24T16:26:19.062Z,16.70
2022-10-24T16:28:46.883Z,16.70
2022-10-24T16:31:18.622Z,16.70
2022-10-24T16:33:46.518Z,16.70
2022-10-24T16:36:19.561Z,16.80
2022-10-24T16:38:51.735Z,16.80
2022-10-24T16:41:20.857Z,16.80
2022-10-24T16:43:49.971Z,16.70
2022-10-24T16:46:19.516Z,16.60
2022-10-24T16:48:47.528Z,16.70
2022-10-24T16:51:16.614Z,16.60
2022-10-24T16:53:44.599Z,16.60
2022-10-24T16:56:15.471Z,16.50
2022-10-24T16:58:43.569Z,16.50
2022-10-24T17:01:14.802Z,16.50
2022-10-24T17:03:42.763Z,16.50
2022-10-24T17:06:10.684Z,16.50
2022-10-24T17:08:38.634Z,16.50
2022-10-24T17:11:20.178Z,16.40
2022-10-24T17:13:56.305Z,16.40
2022-10-24T17:16:24.100Z,16.30
2022-10-24T17:19:05.476Z,16.40
2022-10-24T17:21:41.897Z,16.40
2022-10-24T17:24:11.105Z,16.30
2022-10-24T17:26:39.026Z,16.30
2022-10-24T17:29:08.546Z,16.20
2022-10-24T17:31:36.891Z,16.10
2022-10-24T17:34:05.125Z,16.10
2022-10-24T17:36:34.406Z,16.10
2022-10-24T17:39:09.994Z,16.10
2022-10-24T17:41:39.233Z,16.00
2022-10-24T17:44:13.803Z,16.00
2022-10-24T17:46:41.760Z,16.00
2022-10-24T17:49:10.773Z,16.00
2022-10-24T17:51:40.906Z,16.00
2022-10-24T17:54:09.288Z,15.90
2022-10-24T17:56:37.583Z,15.90
2022-10-24T17:59:05.424Z,15.90
2022-10-24T18:01:34.821Z,15.90
2022-10-24T18:04:02.969Z,15.80
2022-10-24T18:06:30.847Z,15.80
2022-10-24T18:08:58.670Z,15.80
2022-10-24T18:11:26.904Z,15.80
2022-10-24T18:13:55.332Z,15.80
2022-10-24T18:16:25.223Z,15.70
2022-10-24T18:18:56.730Z,15.70
2022-10-24T18:21:25.433Z,15.60
2022-10-24T18:23:53.724Z,15.60
2022-10-24T18:26:22.566Z,15.50
2022-10-24T18:28:51.636Z,15.50
2022-10-24T18:31:21.122Z,15.50
2022-10-24T18:33:52.441Z,15.50
2022-10-24T18:36:23.239Z,15.50
2022-10-24T18:38:51.155Z,15.40
2022-10-24T18:41:27.042Z,15.50
2022-10-24T18:43:55.267Z,15.50
2022-10-24T18:46:23.759Z,15.40
2022-10-24T18:48:51.874Z,15.40
2022-10-24T18:51:26.698Z,15.40
2022-10-24T18:53:54.646Z,15.50
2022-10-24T18:56:22.714Z,15.50
2022-10-24T18:58:57.168Z,15.50
2022-10-24T19:01:29.300Z,15.60
2022-10-24T19:03:58.594Z,15.60
2022-10-24T19:06:29.310Z,15.60
2022-10-24T19:08:57.667Z,15.60
2022-10-24T19:11:25.613Z,15.60
2022-10-24T19:13:53.618Z,15.60
2022-10-24T19:16:23.234Z,15.60
2022-10-24T19:18:54.018Z,15.50
2022-10-24T19:21:21.808Z,15.50
2022-10-24T19:23:51.170Z,15.50
2022-10-24T19:26:19.298Z,15.50
2022-10-24T19:28:47.372Z,15.50
2022-10-24T19:31:16.527Z,15.50
2022-10-24T19:33:49.092Z,15.40
2022-10-24T19:36:19.143Z,15.40
2022-10-24T19:38:47.346Z,15.40
2022-10-24T19:41:16.480Z,15.30
2022-10-24T19:43:44.309Z,15.30
2022-10-24T19:46:19.632Z,15.40
2022-10-24T19:48:49.222Z,15.40
2022-10-24T19:51:18.758Z,15.40
2022-10-24T19:53:49.437Z,15.40
2022-10-24T19:56:22.597Z,15.30
2022-10-24T19:58:53.312Z,15.30
2022-10-24T20:01:22.253Z,15.30
2022-10-24T20:03:51.114Z,15.30
2022-10-24T20:06:20.215Z,15.30
2022-10-24T20:08:48.452Z,15.20
2022-10-24T20:11:16.747Z,15.20
2022-10-24T20:13:45.931Z,15.20
2022-10-24T20:16:14.685Z,15.20
2022-10-24T20:18:44.084Z,15.20
2022-10-24T20:21:13.030Z,15.20
2022-10-24T20:23:41.774Z,15.20
2022-10-24T20:26:10.818Z,15.20
2022-10-24T20:28:39.794Z,15.10
2022-10-24T20:31:09.001Z,15.10
2022-10-24T20:33:36.832Z,15.00
2022-10-24T20:36:04.807Z,15.00
2022-10-24T20:38:33.689Z,15.00
2022-10-24T20:41:02.864Z,15.10
2022-10-24T20:43:31.120Z,15.10
2022-10-24T20:45:59.013Z,15.10
2022-10-24T20:48:28.209Z,15.10
2022-10-24T20:50:56.023Z,15.00
2022-10-24T20:53:23.843Z,14.90
2022-10-24T20:55:51.661Z,14.90
2022-10-24T20:58:19.546Z,14.90
2022-10-24T21:00:47.387Z,14.80
2022-10-24T21:03:15.312Z,14.80
2022-10-24T21:05:44.560Z,14.80
2022-10-24T21:08:12.573Z,14.80
2022-10-24T21:10:40.380Z,14.80
2022-10-24T21:13:08.230Z,14.70
2022-10-24T21:15:36.066Z,14.60
2022-10-24T21:18:04.833Z,14.50
2022-10-24T21:20:32.980Z,14.50
2022-10-24T21:23:02.188Z,14.40
2022-10-24T21:25:30.335Z,14.40
2022-10-24T21:27:58.162Z,14.40
2022-10-24T21:30:26.413Z,14.20
2022-10-24T21:32:54.232Z,14.10
2022-10-24T21:35:22.043Z,14.10
2022-10-24T21:37:49.921Z,14.20
2022-10-24T21:40:20.267Z,14.30
2022-10-24T21:42:48.390Z,14.30
2022-10-24T21:45:19.511Z,14.30
2022-10-24T21:47:47.279Z,14.30
2022-10-24T21:50:15.103Z,14.30
2022-10-24T21:52:43.495Z,14.30
2022-10-24T21:55:11.554Z,14.30
2022-10-24T21:57:43.430Z,14.20
2022-10-24T22:00:11.885Z,14.20
2022-10-24T22:02:39.750Z,14.20
2022-10-24T22:05:07.943Z,14.10
2022-10-24T22:07:35.732Z,14.10
2022-10-24T22:10:03.506Z,14.10
2022-10-24T22:12:31.323Z,14.10
2022-10-24T22:15:02.586Z,14.00
2022-10-24T22:17:30.429Z,14.00
2022-10-24T22:19:58.291Z,13.90
2022-10-24T22:22:26.391Z,13.80
2022-10-24T22:24:54.330Z,13.80
2022-10-24T22:27:22.141Z,13.80
2022-10-24T22:29:50.060Z,13.80
2022-10-24T22:32:19.538Z,13.80
2022-10-24T22:34:47.588Z,13.80
2022-10-24T22:37:20.970Z,13.90
2022-10-24T22:39:51.307Z,14.00
2022-10-24T22:42:20.437Z,14.00
2022-10-24T22:44:48.870Z,14.00
2022-10-24T22:47:34.307Z,13.90
2022-10-24T22:50:07.649Z,13.90
2022-10-24T22:52:35.710Z,13.90
2022-10-24T22:55:04.085Z,13.80
2022-10-24T22:57:32.655Z,13.80
2022-10-24T23:00:00.707Z,13.70
2022-10-24T23:02:30.973Z,13.70
2022-10-24T23:05:04.728Z,13.60
2022-10-24T23:07:36.822Z,13.50
2022-10-24T23:10:04.902Z,13.40
2022-10-24T23:12:32.905Z,13.30
2022-10-24T23:15:01.030Z,13.30
2022-10-24T23:17:29.588Z,13.20
2022-10-24T23:19:58.233Z,13.20
2022-10-24T23:22:28.243Z,13.20
2022-10-24T23:24:56.870Z,13.10
2022-10-24T23:27:37.571Z,13.20
2022-10-24T23:30:06.604Z,13.20
2022-10-24T23:32:36.145Z,13.10
2022-10-24T23:35:04.724Z,13.00
2022-10-24T23:37:35.256Z,12.90
2022-10-24T23:40:14.898Z,13.00
2022-10-24T23:42:43.040Z,12.90
2022-10-24T23:45:13.339Z,12.70
2022-10-24T23:47:49.947Z,12.60
2022-10-24T23:50:23.310Z,12.60
2022-10-24T23:53:00.831Z,12.60
2022-10-24T23:55:28.958Z,12.80
2022-10-24T23:57:56.887Z,12.80
